sensor_id;sensor_type;location;lat;lon;timestamp;P1;durP1;ratioP1;P2;durP2;ratioP2
14121;SDS011;7139;48.114;11.442;2023-03-01T00:02:20;18.23;;;15.43;;
14121;SDS011;7139;48.114;11.442;2023-03-01T00:04:47;18.27;;;15.17;;
14121;SDS011;7139;48.114;11.442;2023-03-01T00:07:14;18.77;;;15.57;;
14121;SDS011;7139;48.114;11.442;2023-03-01T00:09:40;17.33;;;15.13;;
14121;SDS011;7139;48.114;11.442;2023-03-01T00:12:08;19.57;;;15.97;;
14121;SDS011;7139;48.114;11.442;2023-03-01T00:14:36;18.00;;;15.70;;
14121;SDS011;7139;48.114;11.442;2023-03-01T00:17:02;18.87;;;15.67;;
14121;SDS011;7139;48.114;11.442;2023-03-01T00:19:29;18.37;;;16.10;;
14121;SDS011;7139;48.114;11.442;2023-03-01T00:21:57;18.63;;;15.77;;
14121;SDS011;7139;48.114;11.442;2023-03-01T00:24:24;18.53;;;15.33;;
14121;SDS011;7139;48.114;11.442;2023-03-01T00:26:52;18.27;;;15.67;;
14121;SDS011;7139;48.114;11.442;2023-03-01T00:29:21;19.60;;;15.30;;
14121;SDS011;7139;48.114;11.442;2023-03-01T00:31:48;17.27;;;14.90;;
14121;SDS011;7139;48.114;11.442;2023-03-01T00:34:15;18.67;;;15.43;;
14121;SDS011;7139;48.114;11.442;2023-03-01T00:36:42;18.47;;;14.80;;
14121;SDS011;7139;48.114;11.442;2023-03-01T00:39:10;18.20;;;15.53;;
14121;SDS011;7139;48.114;11.442;2023-03-01T00:41:38;18.43;;;15.70;;
14121;SDS011;7139;48.114;11.442;2023-03-01T00:44:06;17.83;;;15.90;;
14121;SDS011;7139;48.114;11.442;2023-03-01T00:46:34;18.77;;;16.00;;
14121;SDS011;7139;48.114;11.442;2023-03-01T00:49:01;17.70;;;15.23;;
14121;SDS011;7139;48.114;11.442;2023-03-01T00:51:29;19.67;;;16.47;;
14121;SDS011;7139;48.114;11.442;2023-03-01T00:53:57;18.80;;;16.17;;
14121;SDS011;7139;48.114;11.442;2023-03-01T00:56:26;19.03;;;15.47;;
14121;SDS011;7139;48.114;11.442;2023-03-01T00:58:52;18.87;;;16.37;;
14121;SDS011;7139;48.114;11.442;2023-03-01T01:01:21;18.00;;;15.57;;
14121;SDS011;7139;48.114;11.442;2023-03-01T01:03:51;17.67;;;14.93;;
14121;SDS011;7139;48.114;11.442;2023-03-01T01:06:20;19.50;;;16.13;;
14121;SDS011;7139;48.114;11.442;2023-03-01T01:08:50;17.07;;;14.90;;
14121;SDS011;7139;48.114;11.442;2023-03-01T01:11:17;20.30;;;15.03;;
14121;SDS011;7139;48.114;11.442;2023-03-01T01:13:45;18.77;;;15.97;;
14121;SDS011;7139;48.114;11.442;2023-03-01T01:16:13;18.70;;;15.80;;
14121;SDS011;7139;48.114;11.442;2023-03-01T01:18:40;18.97;;;15.23;;
14121;SDS011;7139;48.114;11.442;2023-03-01T01:21:09;17.37;;;15.30;;
14121;SDS011;7139;48.114;11.442;2023-03-01T01:23:38;19.40;;;16.87;;
14121;SDS011;7139;48.114;11.442;2023-03-01T01:26:06;18.87;;;15.83;;
14121;SDS011;7139;48.114;11.442;2023-03-01T01:28:33;17.30;;;15.40;;
14121;SDS011;7139;48.114;11.442;2023-03-01T01:31:00;19.83;;;15.57;;
14121;SDS011;7139;48.114;11.442;2023-03-01T01:33:27;18.80;;;16.20;;
14121;SDS011;7139;48.114;11.442;2023-03-01T01:35:54;17.80;;;14.90;;
14121;SDS011;7139;48.114;11.442;2023-03-01T01:38:22;18.57;;;16.10;;
14121;SDS011;7139;48.114;11.442;2023-03-01T01:40:49;19.90;;;15.23;;
14121;SDS011;7139;48.114;11.442;2023-03-01T01:43:20;19.17;;;15.30;;
14121;SDS011;7139;48.114;11.442;2023-03-01T01:45:49;17.47;;;15.37;;
14121;SDS011;7139;48.114;11.442;2023-03-01T01:48:18;18.80;;;16.57;;
14121;SDS011;7139;48.114;11.442;2023-03-01T01:50:49;18.20;;;15.83;;
14121;SDS011;7139;48.114;11.442;2023-03-01T01:53:22;17.50;;;15.10;;
14121;SDS011;7139;48.114;11.442;2023-03-01T01:55:51;18.97;;;16.40;;
14121;SDS011;7139;48.114;11.442;2023-03-01T01:58:22;20.07;;;16.20;;
14121;SDS011;7139;48.114;11.442;2023-03-01T02:00:52;18.33;;;15.80;;
14121;SDS011;7139;48.114;11.442;2023-03-01T02:03:20;20.37;;;16.47;;
14121;SDS011;7139;48.114;11.442;2023-03-01T02:05:55;19.23;;;15.60;;
14121;SDS011;7139;48.114;11.442;2023-03-01T02:08:27;18.63;;;16.23;;
14121;SDS011;7139;48.114;11.442;2023-03-01T02:10:57;20.27;;;15.57;;
14121;SDS011;7139;48.114;11.442;2023-03-01T02:13:25;17.17;;;15.37;;
14121;SDS011;7139;48.114;11.442;2023-03-01T02:15:52;18.43;;;15.87;;
14121;SDS011;7139;48.114;11.442;2023-03-01T02:18:20;15.97;;;14.10;;
14121;SDS011;7139;48.114;11.442;2023-03-01T02:20:50;18.23;;;15.37;;
14121;SDS011;7139;48.114;11.442;2023-03-01T02:23:32;18.83;;;16.10;;
14121;SDS011;7139;48.114;11.442;2023-03-01T02:26:02;18.13;;;15.40;;
14121;SDS011;7139;48.114;11.442;2023-03-01T02:28:35;18.30;;;15.83;;
14121;SDS011;7139;48.114;11.442;2023-03-01T02:31:05;18.83;;;14.83;;
14121;SDS011;7139;48.114;11.442;2023-03-01T02:33:50;18.53;;;15.83;;
14121;SDS011;7139;48.114;11.442;2023-03-01T02:36:19;20.37;;;16.37;;
14121;SDS011;7139;48.114;11.442;2023-03-01T02:38:48;18.77;;;16.17;;
14121;SDS011;7139;48.114;11.442;2023-03-01T02:41:17;19.33;;;16.47;;
14121;SDS011;7139;48.114;11.442;2023-03-01T02:43:47;19.17;;;16.00;;
14121;SDS011;7139;48.114;11.442;2023-03-01T02:46:15;17.87;;;15.47;;
14121;SDS011;7139;48.114;11.442;2023-03-01T02:48:44;18.43;;;15.70;;
14121;SDS011;7139;48.114;11.442;2023-03-01T02:51:26;21.17;;;16.83;;
14121;SDS011;7139;48.114;11.442;2023-03-01T02:54:07;18.00;;;15.53;;
14121;SDS011;7139;48.114;11.442;2023-03-01T02:56:39;17.57;;;15.63;;
14121;SDS011;7139;48.114;11.442;2023-03-01T02:59:08;18.57;;;16.07;;
14121;SDS011;7139;48.114;11.442;2023-03-01T03:01:35;19.10;;;15.50;;
14121;SDS011;7139;48.114;11.442;2023-03-01T03:04:03;19.80;;;16.03;;
14121;SDS011;7139;48.114;11.442;2023-03-01T03:06:31;19.67;;;15.87;;
14121;SDS011;7139;48.114;11.442;2023-03-01T03:08:58;18.07;;;15.07;;
14121;SDS011;7139;48.114;11.442;2023-03-01T03:11:25;19.03;;;16.30;;
14121;SDS011;7139;48.114;11.442;2023-03-01T03:13:52;18.17;;;15.67;;
14121;SDS011;7139;48.114;11.442;2023-03-01T03:16:20;19.70;;;15.70;;
14121;SDS011;7139;48.114;11.442;2023-03-01T03:18:47;17.20;;;14.50;;
14121;SDS011;7139;48.114;11.442;2023-03-01T03:21:14;18.30;;;15.70;;
14121;SDS011;7139;48.114;11.442;2023-03-01T03:23:42;18.30;;;15.47;;
14121;SDS011;7139;48.114;11.442;2023-03-01T03:26:09;18.63;;;15.80;;
14121;SDS011;7139;48.114;11.442;2023-03-01T03:28:40;18.87;;;15.77;;
14121;SDS011;7139;48.114;11.442;2023-03-01T03:31:07;20.47;;;16.50;;
14121;SDS011;7139;48.114;11.442;2023-03-01T03:33:35;18.63;;;15.60;;
14121;SDS011;7139;48.114;11.442;2023-03-01T03:36:02;19.77;;;16.53;;
14121;SDS011;7139;48.114;11.442;2023-03-01T03:38:30;18.43;;;15.90;;
14121;SDS011;7139;48.114;11.442;2023-03-01T03:41:00;20.07;;;16.03;;
14121;SDS011;7139;48.114;11.442;2023-03-01T03:43:30;17.67;;;15.77;;
14121;SDS011;7139;48.114;11.442;2023-03-01T03:45:58;19.93;;;16.30;;
14121;SDS011;7139;48.114;11.442;2023-03-01T03:48:25;20.53;;;16.03;;
14121;SDS011;7139;48.114;11.442;2023-03-01T03:50:55;19.33;;;15.50;;
14121;SDS011;7139;48.114;11.442;2023-03-01T03:53:23;19.37;;;16.37;;
14121;SDS011;7139;48.114;11.442;2023-03-01T03:55:51;17.77;;;15.33;;
14121;SDS011;7139;48.114;11.442;2023-03-01T03:58:18;18.37;;;16.17;;
14121;SDS011;7139;48.114;11.442;2023-03-01T04:00:48;18.97;;;15.80;;
14121;SDS011;7139;48.114;11.442;2023-03-01T04:03:16;21.70;;;15.70;;
14121;SDS011;7139;48.114;11.442;2023-03-01T04:05:45;18.37;;;15.93;;
14121;SDS011;7139;48.114;11.442;2023-03-01T04:08:14;19.60;;;15.53;;
14121;SDS011;7139;48.114;11.442;2023-03-01T04:10:42;20.33;;;16.87;;
14121;SDS011;7139;48.114;11.442;2023-03-01T04:13:11;18.00;;;16.07;;
14121;SDS011;7139;48.114;11.442;2023-03-01T04:15:40;18.53;;;16.43;;
14121;SDS011;7139;48.114;11.442;2023-03-01T04:18:08;20.57;;;16.97;;
14121;SDS011;7139;48.114;11.442;2023-03-01T04:20:37;21.23;;;16.07;;
14121;SDS011;7139;48.114;11.442;2023-03-01T04:23:04;20.73;;;17.17;;
14121;SDS011;7139;48.114;11.442;2023-03-01T04:25:44;21.10;;;16.47;;
14121;SDS011;7139;48.114;11.442;2023-03-01T04:28:18;19.17;;;16.40;;
14121;SDS011;7139;48.114;11.442;2023-03-01T04:30:45;19.83;;;17.07;;
14121;SDS011;7139;48.114;11.442;2023-03-01T04:33:12;19.43;;;16.53;;
14121;SDS011;7139;48.114;11.442;2023-03-01T04:35:38;19.30;;;17.13;;
14121;SDS011;7139;48.114;11.442;2023-03-01T04:38:06;19.50;;;16.00;;
14121;SDS011;7139;48.114;11.442;2023-03-01T04:40:33;22.47;;;17.23;;
14121;SDS011;7139;48.114;11.442;2023-03-01T04:43:02;18.07;;;16.13;;
14121;SDS011;7139;48.114;11.442;2023-03-01T04:45:31;18.20;;;16.23;;
14121;SDS011;7139;48.114;11.442;2023-03-01T04:47:59;20.83;;;17.23;;
14121;SDS011;7139;48.114;11.442;2023-03-01T04:50:26;20.43;;;16.33;;
14121;SDS011;7139;48.114;11.442;2023-03-01T04:52:53;18.67;;;16.67;;
14121;SDS011;7139;48.114;11.442;2023-03-01T04:55:23;21.57;;;16.47;;
14121;SDS011;7139;48.114;11.442;2023-03-01T04:57:50;18.60;;;16.43;;
14121;SDS011;7139;48.114;11.442;2023-03-01T05:00:19;20.30;;;16.70;;
14121;SDS011;7139;48.114;11.442;2023-03-01T05:02:47;22.63;;;16.83;;
14121;SDS011;7139;48.114;11.442;2023-03-01T05:05:18;23.77;;;17.73;;
14121;SDS011;7139;48.114;11.442;2023-03-01T05:07:45;20.83;;;16.50;;
14121;SDS011;7139;48.114;11.442;2023-03-01T05:10:12;21.53;;;17.27;;
14121;SDS011;7139;48.114;11.442;2023-03-01T05:12:39;19.40;;;16.37;;
14121;SDS011;7139;48.114;11.442;2023-03-01T05:15:06;19.37;;;15.73;;
14121;SDS011;7139;48.114;11.442;2023-03-01T05:17:35;19.20;;;16.53;;
14121;SDS011;7139;48.114;11.442;2023-03-01T05:20:02;19.83;;;16.33;;
14121;SDS011;7139;48.114;11.442;2023-03-01T05:22:33;18.40;;;16.27;;
14121;SDS011;7139;48.114;11.442;2023-03-01T05:25:00;19.30;;;16.77;;
14121;SDS011;7139;48.114;11.442;2023-03-01T05:27:27;21.03;;;16.80;;
14121;SDS011;7139;48.114;11.442;2023-03-01T05:29:54;18.50;;;15.80;;
14121;SDS011;7139;48.114;11.442;2023-03-01T05:32:21;20.37;;;16.93;;
14121;SDS011;7139;48.114;11.442;2023-03-01T05:34:49;21.63;;;17.00;;
14121;SDS011;7139;48.114;11.442;2023-03-01T05:37:17;19.60;;;16.10;;
14121;SDS011;7139;48.114;11.442;2023-03-01T05:39:44;19.57;;;16.17;;
14121;SDS011;7139;48.114;11.442;2023-03-01T05:42:11;23.43;;;17.30;;
14121;SDS011;7139;48.114;11.442;2023-03-01T05:44:38;19.90;;;16.20;;
14121;SDS011;7139;48.114;11.442;2023-03-01T05:47:05;21.27;;;16.47;;
14121;SDS011;7139;48.114;11.442;2023-03-01T05:49:32;20.93;;;17.23;;
14121;SDS011;7139;48.114;11.442;2023-03-01T05:52:01;19.73;;;16.57;;
14121;SDS011;7139;48.114;11.442;2023-03-01T05:54:27;21.17;;;17.60;;
14121;SDS011;7139;48.114;11.442;2023-03-01T05:56:54;23.47;;;17.40;;
14121;SDS011;7139;48.114;11.442;2023-03-01T05:59:21;21.87;;;17.53;;
14121;SDS011;7139;48.114;11.442;2023-03-01T06:01:48;23.23;;;17.93;;
14121;SDS011;7139;48.114;11.442;2023-03-01T06:04:15;19.67;;;16.47;;
14121;SDS011;7139;48.114;11.442;2023-03-01T06:06:41;20.93;;;17.47;;
14121;SDS011;7139;48.114;11.442;2023-03-01T06:09:09;19.97;;;17.47;;
14121;SDS011;7139;48.114;11.442;2023-03-01T06:11:36;22.40;;;16.93;;
14121;SDS011;7139;48.114;11.442;2023-03-01T06:14:03;20.57;;;16.90;;
14121;SDS011;7139;48.114;11.442;2023-03-01T06:16:32;20.37;;;16.90;;
14121;SDS011;7139;48.114;11.442;2023-03-01T06:18:59;21.80;;;16.73;;
14121;SDS011;7139;48.114;11.442;2023-03-01T06:21:26;20.87;;;16.80;;
14121;SDS011;7139;48.114;11.442;2023-03-01T06:23:53;21.23;;;16.90;;
14121;SDS011;7139;48.114;11.442;2023-03-01T06:26:21;22.77;;;18.10;;
14121;SDS011;7139;48.114;11.442;2023-03-01T06:28:48;23.13;;;16.57;;
14121;SDS011;7139;48.114;11.442;2023-03-01T06:31:14;20.70;;;17.20;;
14121;SDS011;7139;48.114;11.442;2023-03-01T06:33:41;24.80;;;18.13;;
14121;SDS011;7139;48.114;11.442;2023-03-01T06:36:09;20.77;;;16.67;;
14121;SDS011;7139;48.114;11.442;2023-03-01T06:38:36;22.07;;;17.57;;
14121;SDS011;7139;48.114;11.442;2023-03-01T06:41:05;23.23;;;17.40;;
14121;SDS011;7139;48.114;11.442;2023-03-01T06:43:34;20.53;;;16.97;;
14121;SDS011;7139;48.114;11.442;2023-03-01T06:46:03;20.63;;;17.07;;
14121;SDS011;7139;48.114;11.442;2023-03-01T06:48:31;22.00;;;17.47;;
14121;SDS011;7139;48.114;11.442;2023-03-01T06:50:58;24.23;;;17.80;;
14121;SDS011;7139;48.114;11.442;2023-03-01T06:53:25;21.30;;;17.30;;
14121;SDS011;7139;48.114;11.442;2023-03-01T06:55:53;20.87;;;16.80;;
14121;SDS011;7139;48.114;11.442;2023-03-01T06:58:20;21.37;;;17.50;;
14121;SDS011;7139;48.114;11.442;2023-03-01T07:00:49;23.57;;;17.40;;
14121;SDS011;7139;48.114;11.442;2023-03-01T07:03:15;20.90;;;17.50;;
14121;SDS011;7139;48.114;11.442;2023-03-01T07:05:42;22.33;;;17.83;;
14121;SDS011;7139;48.114;11.442;2023-03-01T07:08:09;22.13;;;16.73;;
14121;SDS011;7139;48.114;11.442;2023-03-01T07:10:36;19.63;;;16.93;;
14121;SDS011;7139;48.114;11.442;2023-03-01T07:13:02;21.70;;;17.43;;
14121;SDS011;7139;48.114;11.442;2023-03-01T07:15:31;23.93;;;16.70;;
14121;SDS011;7139;48.114;11.442;2023-03-01T07:18:00;21.30;;;16.90;;
14121;SDS011;7139;48.114;11.442;2023-03-01T07:20:27;24.97;;;17.83;;
14121;SDS011;7139;48.114;11.442;2023-03-01T07:22:53;23.50;;;17.87;;
14121;SDS011;7139;48.114;11.442;2023-03-01T07:25:21;23.07;;;17.93;;
14121;SDS011;7139;48.114;11.442;2023-03-01T07:27:51;24.33;;;16.67;;
14121;SDS011;7139;48.114;11.442;2023-03-01T07:30:18;21.60;;;17.07;;
14121;SDS011;7139;48.114;11.442;2023-03-01T07:32:45;22.13;;;17.63;;
14121;SDS011;7139;48.114;11.442;2023-03-01T07:35:13;22.27;;;17.10;;
14121;SDS011;7139;48.114;11.442;2023-03-01T07:37:40;24.53;;;17.63;;
14121;SDS011;7139;48.114;11.442;2023-03-01T07:40:07;22.20;;;17.40;;
14121;SDS011;7139;48.114;11.442;2023-03-01T07:42:35;24.43;;;17.33;;
14121;SDS011;7139;48.114;11.442;2023-03-01T07:45:02;21.37;;;17.17;;
14121;SDS011;7139;48.114;11.442;2023-03-01T07:47:30;21.77;;;17.43;;
14121;SDS011;7139;48.114;11.442;2023-03-01T07:49:57;23.27;;;17.87;;
14121;SDS011;7139;48.114;11.442;2023-03-01T07:52:25;23.53;;;17.70;;
14121;SDS011;7139;48.114;11.442;2023-03-01T07:54:52;20.40;;;17.07;;
14121;SDS011;7139;48.114;11.442;2023-03-01T07:57:19;24.47;;;17.97;;
14121;SDS011;7139;48.114;11.442;2023-03-01T07:59:46;21.17;;;17.13;;
14121;SDS011;7139;48.114;11.442;2023-03-01T08:02:12;22.73;;;17.37;;
14121;SDS011;7139;48.114;11.442;2023-03-01T08:04:40;22.13;;;17.63;;
14121;SDS011;7139;48.114;11.442;2023-03-01T08:07:07;21.40;;;17.73;;
14121;SDS011;7139;48.114;11.442;2023-03-01T08:09:35;24.57;;;17.20;;
14121;SDS011;7139;48.114;11.442;2023-03-01T08:12:02;23.83;;;18.13;;
14121;SDS011;7139;48.114;11.442;2023-03-01T08:14:29;25.20;;;17.87;;
14121;SDS011;7139;48.114;11.442;2023-03-01T08:16:56;23.90;;;17.40;;
14121;SDS011;7139;48.114;11.442;2023-03-01T08:19:23;25.37;;;17.93;;
14121;SDS011;7139;48.114;11.442;2023-03-01T08:21:50;22.53;;;18.33;;
14121;SDS011;7139;48.114;11.442;2023-03-01T08:24:17;22.50;;;17.60;;
14121;SDS011;7139;48.114;11.442;2023-03-01T08:26:45;22.97;;;18.07;;
14121;SDS011;7139;48.114;11.442;2023-03-01T08:29:12;26.27;;;18.43;;
14121;SDS011;7139;48.114;11.442;2023-03-01T08:31:39;22.00;;;17.47;;
14121;SDS011;7139;48.114;11.442;2023-03-01T08:34:07;23.93;;;17.43;;
14121;SDS011;7139;48.114;11.442;2023-03-01T08:36:36;22.83;;;18.30;;
14121;SDS011;7139;48.114;11.442;2023-03-01T08:39:05;21.47;;;18.03;;
14121;SDS011;7139;48.114;11.442;2023-03-01T08:41:32;23.60;;;17.80;;
14121;SDS011;7139;48.114;11.442;2023-03-01T08:44:01;20.97;;;17.50;;
14121;SDS011;7139;48.114;11.442;2023-03-01T08:46:28;27.10;;;18.43;;
14121;SDS011;7139;48.114;11.442;2023-03-01T08:48:56;22.07;;;17.80;;
14121;SDS011;7139;48.114;11.442;2023-03-01T08:51:23;20.73;;;17.03;;
14121;SDS011;7139;48.114;11.442;2023-03-01T08:53:51;22.83;;;17.70;;
14121;SDS011;7139;48.114;11.442;2023-03-01T08:56:18;24.83;;;17.70;;
14121;SDS011;7139;48.114;11.442;2023-03-01T08:58:45;26.30;;;18.77;;
14121;SDS011;7139;48.114;11.442;2023-03-01T09:01:15;25.07;;;18.17;;
14121;SDS011;7139;48.114;11.442;2023-03-01T09:03:43;22.10;;;18.80;;
14121;SDS011;7139;48.114;11.442;2023-03-01T09:06:10;24.30;;;18.63;;
14121;SDS011;7139;48.114;11.442;2023-03-01T09:08:38;23.77;;;17.43;;
14121;SDS011;7139;48.114;11.442;2023-03-01T09:11:07;24.40;;;19.70;;
14121;SDS011;7139;48.114;11.442;2023-03-01T09:13:35;23.13;;;19.13;;
14121;SDS011;7139;48.114;11.442;2023-03-01T09:16:03;23.80;;;18.03;;
14121;SDS011;7139;48.114;11.442;2023-03-01T09:18:33;23.40;;;17.63;;
14121;SDS011;7139;48.114;11.442;2023-03-01T09:21:01;24.87;;;18.53;;
14121;SDS011;7139;48.114;11.442;2023-03-01T09:23:32;23.80;;;18.43;;
14121;SDS011;7139;48.114;11.442;2023-03-01T09:25:59;22.17;;;17.77;;
14121;SDS011;7139;48.114;11.442;2023-03-01T09:28:27;21.07;;;18.23;;
14121;SDS011;7139;48.114;11.442;2023-03-01T09:30:57;22.77;;;19.03;;
14121;SDS011;7139;48.114;11.442;2023-03-01T09:33:24;21.67;;;18.27;;
14121;SDS011;7139;48.114;11.442;2023-03-01T09:35:56;24.50;;;19.33;;
14121;SDS011;7139;48.114;11.442;2023-03-01T09:38:23;26.67;;;19.13;;
14121;SDS011;7139;48.114;11.442;2023-03-01T09:40:50;24.17;;;18.40;;
14121;SDS011;7139;48.114;11.442;2023-03-01T09:43:18;24.97;;;18.93;;
14121;SDS011;7139;48.114;11.442;2023-03-01T09:45:52;25.83;;;18.27;;
14121;SDS011;7139;48.114;11.442;2023-03-01T09:48:22;28.07;;;19.10;;
14121;SDS011;7139;48.114;11.442;2023-03-01T09:50:52;28.47;;;20.03;;
14121;SDS011;7139;48.114;11.442;2023-03-01T09:53:21;23.80;;;18.17;;
14121;SDS011;7139;48.114;11.442;2023-03-01T09:55:51;30.83;;;19.57;;
14121;SDS011;7139;48.114;11.442;2023-03-01T09:58:26;26.77;;;19.00;;
14121;SDS011;7139;48.114;11.442;2023-03-01T10:01:22;23.03;;;18.87;;
14121;SDS011;7139;48.114;11.442;2023-03-01T10:04:23;24.97;;;18.70;;
14121;SDS011;7139;48.114;11.442;2023-03-01T10:07:02;22.17;;;18.07;;
14121;SDS011;7139;48.114;11.442;2023-03-01T10:09:44;23.50;;;19.10;;
14121;SDS011;7139;48.114;11.442;2023-03-01T10:12:14;22.03;;;17.53;;
14121;SDS011;7139;48.114;11.442;2023-03-01T10:14:44;23.50;;;18.43;;
14121;SDS011;7139;48.114;11.442;2023-03-01T10:17:30;26.03;;;19.17;;
14121;SDS011;7139;48.114;11.442;2023-03-01T10:22:50;24.70;;;19.00;;
14121;SDS011;7139;48.114;11.442;2023-03-01T10:25:30;21.63;;;18.10;;
14121;SDS011;7139;48.114;11.442;2023-03-01T10:28:13;24.17;;;19.50;;
14121;SDS011;7139;48.114;11.442;2023-03-01T10:30:43;23.70;;;18.50;;
14121;SDS011;7139;48.114;11.442;2023-03-01T10:33:13;25.23;;;18.97;;
14121;SDS011;7139;48.114;11.442;2023-03-01T10:35:49;24.03;;;19.67;;
14121;SDS011;7139;48.114;11.442;2023-03-01T10:38:48;24.97;;;19.40;;
14121;SDS011;7139;48.114;11.442;2023-03-01T10:41:30;24.80;;;18.60;;
14121;SDS011;7139;48.114;11.442;2023-03-01T10:44:03;22.47;;;18.50;;
14121;SDS011;7139;48.114;11.442;2023-03-01T10:46:31;24.47;;;18.87;;
14121;SDS011;7139;48.114;11.442;2023-03-01T10:49:06;24.93;;;19.80;;
14121;SDS011;7139;48.114;11.442;2023-03-01T10:51:39;24.83;;;18.80;;
14121;SDS011;7139;48.114;11.442;2023-03-01T10:54:14;22.70;;;18.47;;
14121;SDS011;7139;48.114;11.442;2023-03-01T10:56:48;24.83;;;18.03;;
14121;SDS011;7139;48.114;11.442;2023-03-01T10:59:22;24.73;;;18.27;;
14121;SDS011;7139;48.114;11.442;2023-03-01T11:02:03;23.73;;;18.57;;
14121;SDS011;7139;48.114;11.442;2023-03-01T11:04:44;25.03;;;18.43;;
14121;SDS011;7139;48.114;11.442;2023-03-01T11:07:24;21.73;;;18.20;;
14121;SDS011;7139;48.114;11.442;2023-03-01T11:12:39;26.33;;;19.17;;
14121;SDS011;7139;48.114;11.442;2023-03-01T11:15:15;24.63;;;20.03;;
14121;SDS011;7139;48.114;11.442;2023-03-01T11:24:16;24.03;;;19.07;;
14121;SDS011;7139;48.114;11.442;2023-03-01T11:26:45;25.43;;;19.80;;
14121;SDS011;7139;48.114;11.442;2023-03-01T11:29:21;23.40;;;19.07;;
14121;SDS011;7139;48.114;11.442;2023-03-01T11:31:54;21.97;;;18.60;;
14121;SDS011;7139;48.114;11.442;2023-03-01T11:34:24;22.57;;;19.83;;
14121;SDS011;7139;48.114;11.442;2023-03-01T11:37:13;20.40;;;18.20;;
14121;SDS011;7139;48.114;11.442;2023-03-01T11:39:51;21.47;;;19.07;;
14121;SDS011;7139;48.114;11.442;2023-03-01T11:42:25;22.70;;;19.23;;
14121;SDS011;7139;48.114;11.442;2023-03-01T11:45:05;22.80;;;19.00;;
14121;SDS011;7139;48.114;11.442;2023-03-01T11:47:42;23.70;;;18.73;;
14121;SDS011;7139;48.114;11.442;2023-03-01T11:50:24;23.70;;;18.83;;
14121;SDS011;7139;48.114;11.442;2023-03-01T11:52:59;23.93;;;18.63;;
14121;SDS011;7139;48.114;11.442;2023-03-01T11:55:39;23.90;;;19.53;;
14121;SDS011;7139;48.114;11.442;2023-03-01T12:01:10;23.90;;;18.87;;
14121;SDS011;7139;48.114;11.442;2023-03-01T12:03:47;22.77;;;18.70;;
14121;SDS011;7139;48.114;11.442;2023-03-01T12:06:28;22.63;;;20.23;;
14121;SDS011;7139;48.114;11.442;2023-03-01T12:09:15;25.23;;;20.00;;
14121;SDS011;7139;48.114;11.442;2023-03-01T12:11:57;24.60;;;20.03;;
14121;SDS011;7139;48.114;11.442;2023-03-01T12:14:44;24.10;;;19.40;;
14121;SDS011;7139;48.114;11.442;2023-03-01T12:20:20;22.40;;;18.90;;
14121;SDS011;7139;48.114;11.442;2023-03-01T12:22:56;22.70;;;19.63;;
14121;SDS011;7139;48.114;11.442;2023-03-01T12:25:45;26.97;;;19.50;;
14121;SDS011;7139;48.114;11.442;2023-03-01T12:28:26;23.50;;;20.00;;
14121;SDS011;7139;48.114;11.442;2023-03-01T12:31:16;24.87;;;19.97;;
14121;SDS011;7139;48.114;11.442;2023-03-01T12:34:11;21.03;;;18.83;;
14121;SDS011;7139;48.114;11.442;2023-03-01T12:36:54;25.40;;;21.53;;
14121;SDS011;7139;48.114;11.442;2023-03-01T12:39:39;24.03;;;19.77;;
14121;SDS011;7139;48.114;11.442;2023-03-01T12:42:19;21.13;;;18.87;;
14121;SDS011;7139;48.114;11.442;2023-03-01T12:44:56;22.07;;;19.43;;
14121;SDS011;7139;48.114;11.442;2023-03-01T12:48:03;27.00;;;20.90;;
14121;SDS011;7139;48.114;11.442;2023-03-01T12:50:51;26.77;;;21.10;;
14121;SDS011;7139;48.114;11.442;2023-03-01T12:53:21;23.60;;;19.00;;
14121;SDS011;7139;48.114;11.442;2023-03-01T12:55:50;21.60;;;19.30;;
14121;SDS011;7139;48.114;11.442;2023-03-01T12:58:21;22.43;;;18.63;;
14121;SDS011;7139;48.114;11.442;2023-03-01T13:00:59;25.30;;;20.50;;
14121;SDS011;7139;48.114;11.442;2023-03-01T13:03:31;24.50;;;20.07;;
14121;SDS011;7139;48.114;11.442;2023-03-01T13:06:10;20.77;;;18.23;;
14121;SDS011;7139;48.114;11.442;2023-03-01T13:08:47;24.83;;;20.53;;
14121;SDS011;7139;48.114;11.442;2023-03-01T13:11:21;26.30;;;21.07;;
14121;SDS011;7139;48.114;11.442;2023-03-01T13:13:49;22.97;;;19.87;;
14121;SDS011;7139;48.114;11.442;2023-03-01T13:16:20;21.50;;;19.30;;
14121;SDS011;7139;48.114;11.442;2023-03-01T13:19:07;23.87;;;20.43;;
14121;SDS011;7139;48.114;11.442;2023-03-01T13:21:41;24.80;;;20.57;;
14121;SDS011;7139;48.114;11.442;2023-03-01T13:24:29;22.77;;;19.17;;
14121;SDS011;7139;48.114;11.442;2023-03-01T13:27:09;22.03;;;19.30;;
14121;SDS011;7139;48.114;11.442;2023-03-01T13:29:50;22.90;;;18.73;;
14121;SDS011;7139;48.114;11.442;2023-03-01T13:32:19;21.57;;;18.60;;
14121;SDS011;7139;48.114;11.442;2023-03-01T13:34:51;23.17;;;19.97;;
14121;SDS011;7139;48.114;11.442;2023-03-01T13:37:27;21.00;;;18.73;;
14121;SDS011;7139;48.114;11.442;2023-03-01T13:39:56;21.17;;;19.00;;
14121;SDS011;7139;48.114;11.442;2023-03-01T13:42:31;26.17;;;20.10;;
14121;SDS011;7139;48.114;11.442;2023-03-01T13:45:14;20.83;;;18.70;;
14121;SDS011;7139;48.114;11.442;2023-03-01T13:47:45;23.67;;;19.77;;
14121;SDS011;7139;48.114;11.442;2023-03-01T13:50:18;24.43;;;19.70;;
14121;SDS011;7139;48.114;11.442;2023-03-01T13:52:50;28.20;;;19.63;;
14121;SDS011;7139;48.114;11.442;2023-03-01T13:55:23;23.73;;;19.93;;
14121;SDS011;7139;48.114;11.442;2023-03-01T13:57:53;21.60;;;19.00;;
14121;SDS011;7139;48.114;11.442;2023-03-01T14:00:26;21.77;;;19.40;;
14121;SDS011;7139;48.114;11.442;2023-03-01T14:05:56;22.30;;;19.90;;
14121;SDS011;7139;48.114;11.442;2023-03-01T14:08:27;22.43;;;19.77;;
14121;SDS011;7139;48.114;11.442;2023-03-01T14:14:12;23.00;;;20.50;;
14121;SDS011;7139;48.114;11.442;2023-03-01T14:16:55;22.57;;;20.10;;
14121;SDS011;7139;48.114;11.442;2023-03-01T14:19:29;23.50;;;20.10;;
14121;SDS011;7139;48.114;11.442;2023-03-01T14:22:03;22.40;;;19.70;;
14121;SDS011;7139;48.114;11.442;2023-03-01T14:24:43;23.53;;;19.87;;
14121;SDS011;7139;48.114;11.442;2023-03-01T14:27:14;22.30;;;20.00;;
14121;SDS011;7139;48.114;11.442;2023-03-01T14:29:41;21.90;;;19.70;;
14121;SDS011;7139;48.114;11.442;2023-03-01T14:32:09;22.40;;;19.50;;
14121;SDS011;7139;48.114;11.442;2023-03-01T14:34:38;21.47;;;19.17;;
14121;SDS011;7139;48.114;11.442;2023-03-01T14:37:10;27.43;;;20.27;;
14121;SDS011;7139;48.114;11.442;2023-03-01T14:39:37;25.37;;;19.77;;
14121;SDS011;7139;48.114;11.442;2023-03-01T14:42:05;24.90;;;20.53;;
14121;SDS011;7139;48.114;11.442;2023-03-01T14:44:32;23.33;;;20.10;;
14121;SDS011;7139;48.114;11.442;2023-03-01T14:47:02;22.80;;;18.43;;
14121;SDS011;7139;48.114;11.442;2023-03-01T14:49:30;24.47;;;19.17;;
14121;SDS011;7139;48.114;11.442;2023-03-01T14:51:59;22.80;;;18.77;;
14121;SDS011;7139;48.114;11.442;2023-03-01T14:54:28;21.93;;;18.63;;
14121;SDS011;7139;48.114;11.442;2023-03-01T14:57:13;22.17;;;18.07;;
14121;SDS011;7139;48.114;11.442;2023-03-01T14:59:41;24.23;;;18.87;;
14121;SDS011;7139;48.114;11.442;2023-03-01T15:02:11;23.67;;;18.83;;
14121;SDS011;7139;48.114;11.442;2023-03-01T15:04:42;20.70;;;18.47;;
14121;SDS011;7139;48.114;11.442;2023-03-01T15:07:11;24.33;;;18.33;;